createdAt,value
2022-11-18T00:01:16.960Z,26.90
2022-11-18T00:03:45.959Z,26.90
2022-11-18T00:06:16.417Z,26.90
2022-11-18T00:09:06.200Z,26.90
2022-11-18T00:11:34.452Z,26.80
2022-11-18T00:14:02.625Z,26.80
2022-11-18T00:16:30.866Z,26.80
2022-11-18T00:18:59.191Z,26.80
2022-11-18T00:21:27.234Z,26.70
2022-11-18T00:23:55.659Z,26.80
2022-11-18T00:26:23.732Z,26.80
2022-11-18T00:28:52.169Z,26.80
2022-11-18T00:31:20.425Z,26.80
2022-11-18T00:33:48.674Z,26.80
2022-11-18T00:36:17.166Z,26.70
2022-11-18T00:38:45.471Z,26.80
2022-11-18T00:41:15.843Z,26.80
2022-11-18T00:43:44.278Z,26.80
2022-11-18T00:46:13.216Z,26.80
2022-11-18T00:48:42.087Z,26.80
2022-11-18T00:51:16.871Z,26.80
2022-11-18T00:53:46.133Z,26.70
2022-11-18T00:56:14.286Z,26.70
2022-11-18T00:58:42.631Z,26.70
2022-11-18T01:01:10.922Z,26.70
2022-11-18T01:03:39.188Z,26.70
2022-11-18T01:06:07.442Z,26.70
2022-11-18T01:08:36.287Z,26.70
2022-11-18T01:11:04.461Z,26.70
2022-11-18T01:13:32.763Z,26.70
2022-11-18T01:16:04.415Z,26.70
2022-11-18T01:18:32.964Z,26.70
2022-11-18T01:21:02.803Z,26.60
2022-11-18T01:23:30.967Z,26.70
2022-11-18T01:26:04.322Z,26.60
2022-11-18T01:28:32.761Z,26.60
2022-11-18T01:31:16.380Z,26.60
2022-11-18T01:33:45.449Z,26.50
2022-11-18T01:36:19.165Z,26.50
2022-11-18T01:38:47.704Z,26.60
2022-11-18T01:41:17.236Z,26.60
2022-11-18T01:43:58.685Z,26.60
2022-11-18T01:46:31.927Z,26.60
2022-11-18T01:49:06.020Z,26.70
2022-11-18T01:51:42.368Z,26.60
2022-11-18T01:54:15.915Z,26.60
2022-11-18T01:56:49.960Z,26.50
2022-11-18T01:59:23.131Z,26.50
2022-11-18T02:01:54.042Z,26.50
2022-11-18T02:04:26.118Z,26.50
2022-11-18T02:06:55.831Z,26.40
2022-11-18T02:09:24.100Z,26.30
2022-11-18T02:11:52.743Z,26.30
2022-11-18T02:14:28.539Z,26.30
2022-11-18T02:16:59.650Z,26.30
2022-11-18T02:19:51.162Z,26.30
2022-11-18T02:22:53.071Z,26.30
2022-11-18T02:25:58.468Z,26.20
2022-11-18T02:29:02.187Z,26.20
2022-11-18T02:31:36.498Z,26.10
2022-11-18T02:34:27.318Z,26.10
2022-11-18T02:37:17.204Z,26.10
2022-11-18T02:40:02.043Z,26.00
2022-11-18T02:42:33.794Z,26.00
2022-11-18T02:45:07.450Z,26.00
2022-11-18T02:47:38.104Z,26.00
2022-11-18T02:50:13.887Z,26.00
2022-11-18T02:52:43.632Z,26.00
2022-11-18T02:55:14.617Z,26.00
2022-11-18T02:57:45.421Z,26.10
2022-11-18T03:00:14.249Z,26.10
2022-11-18T03:02:50.068Z,26.10
2022-11-18T03:05:44.409Z,26.00
2022-11-18T03:08:17.938Z,26.00
2022-11-18T03:10:59.474Z,25.90
2022-11-18T03:13:35.161Z,26.00
2022-11-18T03:16:18.467Z,25.90
2022-11-18T03:18:59.016Z,25.90
2022-11-18T03:21:34.603Z,25.80
2022-11-18T03:24:15.204Z,25.80
2022-11-18T03:26:51.704Z,25.80
2022-11-18T03:29:27.273Z,25.70
2022-11-18T03:32:04.478Z,25.70
2022-11-18T03:35:01.903Z,25.80
2022-11-18T03:37:34.472Z,25.70
2022-11-18T03:40:18.930Z,25.70
2022-11-18T03:42:52.176Z,25.70
2022-11-18T03:45:48.394Z,25.60
2022-11-18T03:48:23.902Z,25.70
2022-11-18T03:51:13.993Z,25.70
2022-11-18T03:53:47.386Z,25.80
2022-11-18T03:56:22.116Z,25.80
2022-11-18T03:59:12.862Z,25.90
2022-11-18T04:01:44.182Z,25.80
2022-11-18T04:04:13.624Z,25.70
2022-11-18T04:07:02.764Z,25.70
2022-11-18T04:09:36.203Z,25.70
2022-11-18T04:12:09.360Z,25.60
2022-11-18T04:14:43.820Z,25.60
2022-11-18T04:17:14.436Z,25.60
2022-11-18T04:19:43.489Z,25.60
2022-11-18T04:22:12.265Z,25.60
2022-11-18T04:24:40.694Z,25.60
2022-11-18T04:27:09.334Z,25.60
2022-11-18T04:29:37.446Z,25.60
2022-11-18T04:32:06.104Z,25.60
2022-11-18T04:34:34.245Z,25.60
2022-11-18T04:37:02.424Z,25.50
2022-11-18T04:39:30.742Z,25.40
2022-11-18T04:41:58.850Z,25.40
2022-11-18T04:44:32.910Z,25.40
2022-11-18T04:47:04.051Z,25.40
2022-11-18T04:49:33.120Z,25.40
2022-11-18T04:52:02.103Z,25.50
2022-11-18T04:54:30.375Z,25.50
2022-11-18T04:56:58.946Z,25.40
2022-11-18T04:59:29.162Z,25.50
2022-11-18T05:01:57.597Z,25.40
2022-11-18T05:04:28.252Z,25.50
2022-11-18T05:06:56.517Z,25.40
2022-11-18T05:09:30.304Z,25.40
2022-11-18T05:12:00.619Z,25.40
2022-11-18T05:14:30.109Z,25.40
2022-11-18T05:16:59.920Z,25.30
2022-11-18T05:19:28.239Z,25.40
2022-11-18T05:21:56.589Z,25.30
2022-11-18T05:24:24.639Z,25.30
2022-11-18T05:26:54.236Z,25.20
2022-11-18T05:29:23.511Z,25.20
2022-11-18T05:31:52.127Z,25.30
2022-11-18T05:34:20.805Z,25.30
2022-11-18T05:36:48.916Z,25.20
2022-11-18T05:39:17.419Z,25.20
2022-11-18T05:41:45.947Z,25.10
2022-11-18T05:44:14.263Z,25.20
2022-11-18T05:46:42.462Z,25.20
2022-11-18T05:49:12.009Z,25.10
2022-11-18T05:51:41.577Z,25.10
2022-11-18T05:54:12.628Z,25.10
2022-11-18T05:56:42.787Z,25.10
2022-11-18T05:59:11.500Z,25.10
2022-11-18T06:01:41.939Z,25.10
2022-11-18T06:04:19.489Z,25.10
2022-11-18T06:06:49.851Z,25.20
2022-11-18T06:09:21.373Z,25.10
2022-11-18T06:11:56.352Z,25.10
2022-11-18T06:14:37.105Z,25.00
2022-11-18T06:17:11.314Z,25.00
2022-11-18T06:19:39.922Z,25.00
2022-11-18T06:22:08.756Z,25.00
2022-11-18T06:24:38.006Z,25.00
2022-11-18T06:27:06.325Z,24.90
2022-11-18T06:29:35.093Z,24.90
2022-11-18T06:32:03.515Z,25.00
2022-11-18T06:34:33.642Z,25.00
2022-11-18T06:37:18.936Z,25.00
2022-11-18T06:39:47.642Z,25.00
2022-11-18T06:42:16.057Z,25.10
2022-11-18T06:44:44.336Z,25.10
2022-11-18T06:47:12.413Z,25.10
2022-11-18T06:49:40.554Z,25.10
2022-11-18T06:52:08.868Z,25.10
2022-11-18T06:54:37.068Z,25.10
2022-11-18T06:57:05.281Z,25.00
2022-11-18T06:59:33.416Z,25.10
2022-11-18T07:02:01.583Z,25.00
2022-11-18T07:04:29.828Z,25.00
2022-11-18T07:06:57.890Z,25.10
2022-11-18T07:09:26.264Z,25.10
2022-11-18T07:11:54.571Z,25.10
2022-11-18T07:14:22.947Z,25.10
2022-11-18T07:16:51.111Z,25.10
2022-11-18T07:19:19.663Z,25.10
2022-11-18T07:21:48.117Z,25.20
2022-11-18T07:24:17.214Z,25.30
2022-11-18T07:26:45.516Z,25.40
2022-11-18T07:29:14.001Z,25.40
2022-11-18T07:31:42.282Z,25.40
2022-11-18T07:34:10.712Z,25.50
2022-11-18T07:36:39.066Z,25.60
2022-11-18T07:39:07.813Z,25.60
2022-11-18T07:41:36.674Z,25.60
2022-11-18T07:44:05.460Z,25.60
2022-11-18T07:46:36.280Z,25.70
2022-11-18T07:49:07.294Z,25.70
2022-11-18T07:51:38.086Z,25.80
2022-11-18T07:54:14.700Z,25.90
2022-11-18T07:56:43.145Z,26.00
2022-11-18T07:59:11.288Z,26.10
2022-11-18T08:01:39.741Z,26.10
2022-11-18T08:04:13.005Z,26.10
2022-11-18T08:06:41.401Z,26.30
2022-11-18T08:09:09.820Z,26.40
2022-11-18T08:11:38.346Z,26.50
2022-11-18T08:14:06.640Z,26.50
2022-11-18T08:16:34.824Z,26.60
2022-11-18T08:19:03.219Z,26.70
2022-11-18T08:21:31.426Z,26.70
2022-11-18T08:23:59.652Z,26.70
2022-11-18T08:26:28.399Z,26.70
2022-11-18T08:28:57.809Z,26.70
2022-11-18T08:31:28.271Z,26.70
2022-11-18T08:34:07.303Z,26.70
2022-11-18T08:36:38.610Z,26.80
2022-11-18T08:39:09.514Z,26.90
2022-11-18T08:41:39.038Z,26.90
2022-11-18T08:44:08.224Z,26.90
2022-11-18T08:46:36.405Z,27.00
2022-11-18T08:49:05.035Z,27.10
2022-11-18T08:51:33.275Z,27.20
2022-11-18T08:54:02.521Z,27.20
2022-11-18T08:56:30.886Z,27.30
2022-11-18T08:58:59.179Z,27.40
2022-11-18T09:01:27.631Z,27.40
2022-11-18T09:03:55.849Z,27.50
2022-11-18T09:06:24.724Z,27.50
2022-11-18T09:08:54.098Z,27.60
2022-11-18T09:11:26.997Z,27.60
2022-11-18T09:16:45.389Z,27.70
2022-11-18T09:22:03.673Z,27.90
2022-11-18T09:24:32.149Z,27.90
2022-11-18T09:27:03.041Z,28.00
2022-11-18T09:29:34.217Z,28.10
2022-11-18T09:32:03.156Z,28.20
2022-11-18T09:34:31.320Z,28.30
2022-11-18T09:36:59.728Z,28.40
2022-11-18T09:39:28.275Z,28.50
2022-11-18T09:42:20.991Z,28.60
2022-11-18T09:45:22.454Z,28.70
2022-11-18T09:47:52.822Z,28.80
2022-11-18T09:53:23.601Z,28.90
2022-11-18T09:55:52.843Z,29.00
2022-11-18T09:58:39.715Z,29.10
2022-11-18T10:01:18.532Z,29.20
2022-11-18T10:03:46.987Z,29.30
2022-11-18T10:06:23.761Z,29.40
2022-11-18T10:09:12.156Z,29.40
2022-11-18T10:12:04.631Z,29.50
2022-11-18T10:14:56.191Z,29.70
2022-11-18T10:17:44.962Z,29.70
2022-11-18T10:20:23.295Z,29.60
2022-11-18T10:23:17.329Z,29.60
2022-11-18T10:25:45.644Z,29.60
2022-11-18T10:28:23.939Z,29.40
2022-11-18T10:30:53.206Z,29.40
2022-11-18T10:33:28.032Z,29.40
2022-11-18T10:36:18.000Z,29.50
2022-11-18T10:38:49.881Z,29.50
2022-11-18T10:41:21.231Z,29.50
2022-11-18T10:43:55.030Z,29.40
2022-11-18T10:46:27.755Z,29.40
2022-11-18T10:49:11.340Z,29.40
2022-11-18T10:51:45.768Z,29.60
2022-11-18T10:54:24.787Z,29.60
2022-11-18T10:56:59.029Z,29.50
2022-11-18T10:59:58.289Z,29.50
2022-11-18T11:02:40.663Z,29.50
2022-11-18T11:05:22.339Z,29.50
2022-11-18T11:08:34.640Z,29.40
2022-11-18T11:10:59.289Z,29.40
2022-11-18T11:13:31.073Z,29.60
2022-11-18T11:16:06.317Z,29.70
2022-11-18T11:18:39.215Z,29.60
2022-11-18T11:21:18.831Z,29.80
2022-11-18T11:23:47.849Z,29.80
2022-11-18T11:29:52.748Z,29.90
2022-11-18T11:32:50.288Z,29.70
2022-11-18T11:35:27.481Z,29.60
2022-11-18T11:38:04.637Z,29.50
2022-11-18T11:41:12.499Z,29.40
2022-11-18T11:44:07.039Z,29.40
2022-11-18T11:47:08.847Z,29.20
2022-11-18T11:50:05.778Z,29.50
2022-11-18T11:52:46.303Z,29.50
2022-11-18T11:55:24.280Z,29.50
2022-11-18T11:58:12.459Z,29.50
2022-11-18T12:00:51.346Z,29.40
2022-11-18T12:03:38.221Z,29.40
2022-11-18T12:06:08.506Z,29.50
2022-11-18T12:08:38.130Z,29.70
2022-11-18T12:11:21.632Z,29.80
2022-11-18T12:14:28.324Z,29.90
2022-11-18T12:17:22.885Z,29.90
2022-11-18T12:19:51.172Z,29.90
2022-11-18T12:22:19.252Z,29.90
2022-11-18T12:24:47.734Z,29.90
2022-11-18T12:27:38.892Z,30.10
2022-11-18T12:30:19.037Z,30.30
2022-11-18T12:32:47.363Z,30.60
2022-11-18T12:35:26.953Z,30.50
2022-11-18T12:37:55.135Z,30.50
2022-11-18T12:40:48.805Z,30.30
2022-11-18T12:43:32.600Z,30.30
2022-11-18T12:46:00.955Z,30.20
2022-11-18T12:48:35.303Z,30.20
2022-11-18T12:51:15.780Z,30.20
2022-11-18T12:53:48.611Z,30.50
2022-11-18T12:56:30.792Z,30.70
2022-11-18T12:59:00.879Z,30.80
2022-11-18T13:01:31.615Z,30.90
2022-11-18T13:04:10.731Z,31.10
2022-11-18T13:06:39.883Z,31.20
2022-11-18T13:09:27.753Z,31.40
2022-11-18T13:12:07.823Z,31.10
2022-11-18T13:14:42.001Z,30.90
2022-11-18T13:17:32.605Z,30.70
2022-11-18T13:20:00.925Z,30.30
2022-11-18T13:22:29.186Z,30.10
2022-11-18T13:24:57.468Z,29.70
2022-11-18T13:28:07.902Z,29.70
2022-11-18T13:30:43.834Z,29.70
2022-11-18T13:33:12.882Z,30.00
2022-11-18T13:35:41.611Z,30.30
2022-11-18T13:38:28.391Z,30.40
2022-11-18T13:40:56.971Z,30.40
2022-11-18T13:43:28.333Z,30.60
2022-11-18T13:45:56.814Z,30.70
2022-11-18T13:48:25.009Z,30.90
2022-11-18T13:50:55.161Z,31.20
2022-11-18T13:53:38.415Z,31.20
2022-11-18T13:56:31.785Z,31.40
2022-11-18T13:59:17.238Z,31.40
2022-11-18T14:01:47.484Z,31.70
2022-11-18T14:04:28.522Z,31.90
2022-11-18T14:07:23.589Z,32.10
2022-11-18T14:09:57.720Z,32.10
2022-11-18T14:12:31.784Z,32.00
2022-11-18T14:15:23.488Z,31.90
2022-11-18T14:17:56.914Z,32.10
2022-11-18T14:20:27.315Z,32.10
2022-11-18T14:23:01.447Z,32.30
2022-11-18T14:25:34.133Z,32.50
2022-11-18T14:28:20.789Z,32.30
2022-11-18T14:31:05.439Z,32.50
2022-11-18T14:33:36.083Z,32.40
2022-11-18T14:36:17.553Z,32.00
2022-11-18T14:39:25.034Z,31.50
2022-11-18T14:41:43.902Z,31.30
2022-11-18T14:44:12.977Z,31.40
2022-11-18T14:46:43.110Z,31.50
2022-11-18T14:49:20.020Z,31.60
2022-11-18T14:51:48.956Z,31.50
2022-11-18T14:54:25.506Z,31.30
2022-11-18T14:57:03.854Z,31.30
2022-11-18T14:59:32.663Z,31.50
2022-11-18T15:02:01.082Z,31.60
2022-11-18T15:04:29.627Z,31.60
2022-11-18T15:06:57.696Z,31.50
2022-11-18T15:09:25.957Z,31.60
2022-11-18T15:11:54.366Z,31.60
2022-11-18T15:14:22.692Z,31.70
2022-11-18T15:16:50.927Z,31.80
2022-11-18T15:19:19.063Z,31.80
2022-11-18T15:21:47.367Z,31.90
2022-11-18T15:24:15.829Z,32.20
2022-11-18T15:26:46.699Z,32.40
2022-11-18T15:29:22.741Z,32.40
2022-11-18T15:31:51.972Z,32.40
2022-11-18T15:34:21.288Z,32.50
2022-11-18T15:36:49.974Z,32.40
2022-11-18T15:39:18.389Z,32.60
2022-11-18T15:41:46.504Z,32.70
2022-11-18T15:44:14.900Z,32.70
2022-11-18T15:46:43.041Z,32.90
2022-11-18T15:49:15.923Z,32.70
2022-11-18T15:51:44.334Z,32.60
2022-11-18T15:54:12.584Z,32.70
2022-11-18T15:56:40.948Z,33.10
2022-11-18T15:59:15.699Z,33.10
2022-11-18T16:01:49.032Z,33.10
2022-11-18T16:04:19.376Z,33.30
2022-11-18T16:06:48.070Z,33.50
2022-11-18T16:09:17.730Z,33.60
2022-11-18T16:11:46.332Z,33.10
2022-11-18T16:14:16.804Z,33.10
2022-11-18T16:16:46.865Z,32.90
2022-11-18T16:19:17.752Z,32.80
2022-11-18T16:21:51.652Z,33.30
2022-11-18T16:24:25.575Z,33.70
2022-11-18T16:26:54.223Z,33.90
2022-11-18T16:29:23.263Z,33.20
2022-11-18T16:31:52.837Z,33.50
2022-11-18T16:34:28.929Z,33.70
2022-11-18T16:36:58.980Z,33.40
2022-11-18T16:39:28.468Z,33.60
2022-11-18T16:42:03.825Z,33.40
2022-11-18T16:44:36.433Z,33.10
2022-11-18T16:47:09.183Z,33.00
2022-11-18T16:49:40.948Z,32.40
2022-11-18T16:52:09.148Z,32.60
2022-11-18T16:54:44.379Z,32.40
2022-11-18T16:57:14.384Z,32.10
2022-11-18T16:59:42.644Z,32.00
2022-11-18T17:02:13.402Z,31.60
2022-11-18T17:04:42.050Z,31.30
2022-11-18T17:07:10.270Z,31.30
2022-11-18T17:09:38.600Z,31.00
2022-11-18T17:12:07.348Z,30.90
2022-11-18T17:14:35.496Z,30.70
2022-11-18T17:17:03.596Z,30.60
2022-11-18T17:19:31.743Z,30.50
2022-11-18T17:22:01.802Z,30.60
2022-11-18T17:24:30.097Z,30.60
2022-11-18T17:26:58.120Z,30.40
2022-11-18T17:29:26.337Z,30.30
2022-11-18T17:31:54.483Z,30.30
2022-11-18T17:34:22.649Z,30.10
2022-11-18T17:36:50.790Z,30.10
2022-11-18T17:39:19.311Z,30.10
2022-11-18T17:41:47.745Z,30.10
2022-11-18T17:44:18.683Z,30.00
2022-11-18T17:46:47.154Z,29.90
2022-11-18T17:49:17.871Z,29.90
2022-11-18T17:51:46.825Z,29.90
2022-11-18T17:54:15.467Z,29.80
2022-11-18T17:56:43.896Z,29.90
2022-11-18T17:59:12.340Z,29.80
2022-11-18T18:01:40.751Z,29.80
2022-11-18T18:04:09.003Z,29.70
2022-11-18T18:06:37.432Z,29.60
2022-11-18T18:09:05.598Z,29.40
2022-11-18T18:11:33.850Z,29.40
2022-11-18T18:14:02.082Z,29.20
2022-11-18T18:16:32.084Z,29.20
2022-11-18T18:19:02.035Z,29.20
2022-11-18T18:21:30.420Z,29.10
2022-11-18T18:23:59.031Z,29.10
2022-11-18T18:26:31.552Z,29.00
2022-11-18T18:29:01.480Z,29.00
2022-11-18T18:31:30.049Z,29.00
2022-11-18T18:33:58.863Z,28.90
2022-11-18T18:36:27.180Z,28.80
2022-11-18T18:38:56.777Z,28.80
2022-11-18T18:41:24.981Z,28.80
2022-11-18T18:43:53.173Z,28.70
2022-11-18T18:46:24.818Z,28.70
2022-11-18T18:48:53.120Z,28.70
2022-11-18T18:51:21.324Z,28.80
2022-11-18T18:53:49.424Z,28.80
2022-11-18T18:56:17.664Z,28.70
2022-11-18T18:58:45.967Z,28.70
2022-11-18T19:01:16.519Z,28.70
2022-11-18T19:03:45.286Z,28.70
2022-11-18T19:06:48.773Z,28.70
2022-11-18T19:09:05.864Z,28.60
2022-11-18T19:11:34.130Z,28.70
2022-11-18T19:14:16.761Z,28.80
2022-11-18T19:16:45.915Z,28.70
2022-11-18T19:19:22.256Z,28.60
2022-11-18T19:21:50.327Z,28.60
2022-11-18T19:24:42.784Z,28.60
2022-11-18T19:27:07.836Z,28.60
2022-11-18T19:29:35.972Z,28.60
2022-11-18T19:32:04.129Z,28.60
2022-11-18T19:34:32.394Z,28.60
2022-11-18T19:37:00.510Z,28.50
2022-11-18T19:39:28.953Z,28.50
2022-11-18T19:41:57.197Z,28.40
2022-11-18T19:44:25.321Z,28.50
2022-11-18T19:46:53.664Z,28.50
2022-11-18T19:49:22.473Z,28.50
2022-11-18T19:51:51.221Z,28.50
2022-11-18T19:54:19.429Z,28.50
2022-11-18T19:56:47.688Z,28.40
2022-11-18T19:59:16.066Z,28.40
2022-11-18T20:01:44.598Z,28.50
2022-11-18T20:04:12.906Z,28.50
2022-11-18T20:06:41.139Z,28.40
2022-11-18T20:09:10.620Z,28.40
2022-11-18T20:11:38.958Z,28.40
2022-11-18T20:14:07.925Z,28.40
2022-11-18T20:16:37.845Z,28.40
2022-11-18T20:19:10.841Z,28.30
2022-11-18T20:21:39.628Z,28.30
2022-11-18T20:24:08.874Z,28.30
2022-11-18T20:26:39.209Z,28.30
2022-11-18T20:29:08.470Z,28.30
2022-11-18T20:31:37.126Z,28.20
2022-11-18T20:34:06.108Z,28.20
2022-11-18T20:36:36.354Z,28.20
2022-11-18T20:39:12.657Z,28.20
2022-11-18T20:41:41.047Z,28.20
2022-11-18T20:44:09.271Z,28.20
2022-11-18T20:46:37.475Z,28.20
2022-11-18T20:49:05.758Z,28.20
2022-11-18T20:51:34.208Z,28.20
2022-11-18T20:54:02.439Z,28.20
2022-11-18T20:56:30.779Z,28.20
2022-11-18T20:58:58.860Z,28.20
2022-11-18T21:01:29.271Z,28.20
2022-11-18T21:04:00.539Z,28.10
2022-11-18T21:06:31.042Z,28.10
2022-11-18T21:09:01.539Z,28.10
2022-11-18T21:11:30.636Z,28.10
2022-11-18T21:13:58.790Z,28.10
2022-11-18T21:16:28.341Z,28.10
2022-11-18T21:18:56.762Z,28.10
2022-11-18T21:21:25.265Z,28.00
2022-11-18T21:23:58.210Z,28.00
2022-11-18T21:26:28.726Z,28.00
2022-11-18T21:28:59.031Z,28.00
2022-11-18T21:31:28.282Z,28.00
2022-11-18T21:33:57.244Z,28.00
2022-11-18T21:36:27.267Z,28.00
2022-11-18T21:38:57.272Z,28.00
2022-11-18T21:41:26.191Z,28.00
2022-11-18T21:44:09.992Z,28.00
2022-11-18T21:46:40.096Z,27.90
2022-11-18T21:49:08.954Z,27.90
2022-11-18T21:51:38.437Z,28.00
2022-11-18T21:54:06.730Z,28.00
2022-11-18T21:56:34.885Z,27.90
2022-11-18T21:59:03.206Z,28.00
2022-11-18T22:01:33.556Z,27.90
2022-11-18T22:04:04.490Z,28.00
2022-11-18T22:06:34.213Z,28.00
2022-11-18T22:09:04.140Z,28.00
2022-11-18T22:11:32.679Z,27.90
2022-11-18T22:14:00.769Z,28.00
2022-11-18T22:16:29.146Z,27.90
2022-11-18T22:19:03.719Z,27.90
2022-11-18T22:21:33.698Z,27.90
2022-11-18T22:24:02.018Z,27.80
2022-11-18T22:26:30.450Z,27.70
2022-11-18T22:28:59.178Z,27.70
2022-11-18T22:31:28.696Z,27.70
2022-11-18T22:33:57.673Z,27.60
2022-11-18T22:36:27.479Z,27.60
2022-11-18T22:38:56.617Z,27.60
2022-11-18T22:41:29.128Z,27.50
2022-11-18T22:44:00.393Z,27.40
2022-11-18T22:46:32.252Z,27.40
2022-11-18T22:49:00.827Z,27.40
2022-11-18T22:51:29.282Z,27.40
2022-11-18T22:54:22.800Z,27.40
2022-11-18T22:56:45.759Z,27.30
2022-11-18T22:59:14.232Z,27.20
2022-11-18T23:01:42.497Z,27.20
2022-11-18T23:04:10.749Z,27.20
2022-11-18T23:06:38.948Z,27.10
2022-11-18T23:09:07.154Z,27.20
2022-11-18T23:11:35.333Z,27.30
2022-11-18T23:14:05.950Z,27.30
2022-11-18T23:16:40.362Z,27.20
2022-11-18T23:19:14.062Z,27.20
2022-11-18T23:21:43.547Z,27.20
2022-11-18T23:24:15.979Z,27.10
2022-11-18T23:26:44.680Z,27.10
2022-11-18T23:29:14.674Z,27.20
2022-11-18T23:31:45.215Z,27.10
2022-11-18T23:34:15.279Z,27.10
2022-11-18T23:36:44.143Z,27.10
2022-11-18T23:39:12.687Z,27.00
2022-11-18T23:41:41.367Z,27.10
2022-11-18T23:44:09.635Z,27.00
2022-11-18T23:46:37.718Z,27.00
2022-11-18T23:49:10.174Z,27.00
2022-11-18T23:51:38.475Z,27.00
2022-11-18T23:54:06.634Z,27.10
2022-11-18T23:56:38.143Z,27.10
2022-11-18T23:59:06.755Z,27.10
